»·PEaware :: WAT462 KSBA-KSAN

WAT462 :: KSBA-KSAN

FLIGHT INFORMATION

Flight Status: Arrived
Operator:
Walker Air Transport
More flights by this operator :: More flights under this callsign
Pilot: Andrew C. (32327)
Aircraft: Unknown
(KODI)
More flights by this aircraft type
Origin: KSBA Santa Barbara Mun
United States
Destination: KSAN San Diego Intl-Lindbergh
United States
More flights between these airports :: More routes between these airports
Route: HENER V186 DARTS V597 MZB
File this flight plan on PilotEdge
Remarks: TEC route SBAP28
Altitude:
(Current/Filed)
9,000ft
Speed:
(Current/Filed)
140kts
Departed: 18-Jul-21 09:54 AM
Arrived: 18-Jul-21 11:04 AM
Distance/Time
Traveled:
167nm/1:10
Distance/Time
To Go:
Arrived

Flight Plot

Page will automatically refresh every two minutes.


Map Options




Map Legend


Flown Route
Filed Route
Departure Airport
Arrival Airport
Navaid (VOR, NDB)
Fix

Horizontal Profiles

Position Reports

Time Latitude Longitude Heading Altitude Ground
Speed
18-Jul-21 09:30 34.432565 -119.835101 71 15ft 0kts
18-Jul-21 09:30 34.432565 -119.835101 71 15ft 0kts
18-Jul-21 09:32 34.432565 -119.835101 71 15ft 0kts
18-Jul-21 09:33 34.432565 -119.835101 71 15ft 0kts
18-Jul-21 09:34 34.432565 -119.835101 71 15ft 0kts
18-Jul-21 09:35 34.432565 -119.835101 71 15ft 0kts
18-Jul-21 09:36 34.432565 -119.835101 71 15ft 0kts
18-Jul-21 09:36 34.432565 -119.835101 71 15ft 0kts
18-Jul-21 09:37 34.432565 -119.835101 71 15ft 0kts
18-Jul-21 09:38 34.432565 -119.835101 71 15ft 0kts
18-Jul-21 09:40 34.432565 -119.835101 71 15ft 0kts
18-Jul-21 09:40 34.432565 -119.835101 71 15ft 0kts
18-Jul-21 09:41 34.432565 -119.835101 71 15ft 0kts
18-Jul-21 09:42 34.432565 -119.835101 71 15ft 0kts
18-Jul-21 09:43 34.432565 -119.835101 71 15ft 0kts
18-Jul-21 09:44 34.432565 -119.835101 71 15ft 0kts
18-Jul-21 09:45 34.432565 -119.835101 71 15ft 0kts
18-Jul-21 09:46 34.432565 -119.835101 71 15ft 0kts
18-Jul-21 09:47 34.432565 -119.835101 71 15ft 0kts
18-Jul-21 09:48 34.432565 -119.835101 71 15ft 0kts
18-Jul-21 09:49 34.432217 -119.835176 212 15ft 5kts
18-Jul-21 09:50 34.429984 -119.835288 172 14ft 9kts
18-Jul-21 09:51 34.428934 -119.834666 139 14ft 0kts
18-Jul-21 09:52 34.428934 -119.834666 139 14ft 0kts
18-Jul-21 09:53 34.427840 -119.841347 266 72ft 88kts
18-Jul-21 09:54 34.426797 -119.877575 267 1585ft 113kts
18-Jul-21 09:55 34.425224 -119.917708 266 2846ft 142kts
18-Jul-21 09:56 34.423190 -119.975969 234 3028ft 172kts
18-Jul-21 09:57 34.388242 -119.978133 152 4600ft 139kts
18-Jul-21 09:58 34.353044 -119.955687 152 5743ft 143kts
18-Jul-21 09:59 34.322972 -119.925548 97 6830ft 148kts
18-Jul-21 10:00 34.329400 -119.874706 84 7820ft 152kts
18-Jul-21 10:01 34.332217 -119.822630 87 8738ft 154kts
18-Jul-21 10:02 34.334227 -119.761342 88 8806ft 184kts
18-Jul-21 10:03 34.336147 -119.695246 88 8794ft 176kts
18-Jul-21 10:04 34.337925 -119.632798 88 8798ft 173kts
18-Jul-21 10:05 34.339598 -119.572753 88 8798ft 173kts
18-Jul-21 10:06 34.341236 -119.513063 88 8798ft 173kts
18-Jul-21 10:07 34.342879 -119.451979 88 8798ft 173kts
18-Jul-21 10:08 34.344617 -119.386102 88 8798ft 173kts
18-Jul-21 10:09 34.346341 -119.319391 88 8798ft 172kts
18-Jul-21 10:10 34.348022 -119.253025 88 8798ft 172kts
18-Jul-21 10:11 34.349623 -119.188447 88 8798ft 172kts
18-Jul-21 10:12 34.351171 -119.124676 88 8798ft 172kts
18-Jul-21 10:13 34.352700 -119.060215 88 8798ft 172kts
18-Jul-21 10:14 34.354175 -118.996623 88 8813ft 171kts
18-Jul-21 10:15 34.355597 -118.934052 88 8842ft 171kts
18-Jul-21 10:16 34.351991 -118.872347 108 8873ft 170kts
18-Jul-21 10:17 34.333544 -118.813573 111 8898ft 170kts
18-Jul-21 10:18 34.313697 -118.754855 112 8908ft 171kts
18-Jul-21 10:19 34.293500 -118.695668 112 8908ft 171kts
18-Jul-21 10:20 34.273352 -118.636784 112 8908ft 171kts
18-Jul-21 10:21 34.253267 -118.578213 112 8908ft 172kts
18-Jul-21 10:22 34.233285 -118.520017 112 8906ft 172kts
18-Jul-21 10:23 34.214526 -118.461751 109 8895ft 172kts
18-Jul-21 10:24 34.196418 -118.402122 109 9018ft 164kts
18-Jul-21 10:25 34.178979 -118.344673 109 9078ft 170kts
18-Jul-21 10:26 34.160526 -118.285553 120 9058ft 173kts
18-Jul-21 10:27 34.120472 -118.250362 152 9044ft 172kts
18-Jul-21 10:28 34.077478 -118.224218 154 9020ft 173kts
18-Jul-21 10:29 34.034263 -118.199089 154 9018ft 172kts
18-Jul-21 10:30 33.991051 -118.174138 154 9018ft 172kts
18-Jul-21 10:31 33.947815 -118.149216 154 9018ft 172kts
18-Jul-21 10:32 33.904507 -118.124290 154 9018ft 172kts
18-Jul-21 10:33 33.860359 -118.098898 154 9017ft 172kts
18-Jul-21 10:34 33.816689 -118.073820 154 9018ft 172kts
18-Jul-21 10:35 33.773004 -118.040895 137 9028ft 172kts
18-Jul-21 10:36 33.733900 -117.996005 135 9027ft 173kts
18-Jul-21 10:37 33.694542 -117.949614 135 9028ft 173kts
18-Jul-21 10:38 33.655000 -117.902965 135 9026ft 172kts
18-Jul-21 10:39 33.615597 -117.856504 135 9027ft 172kts
18-Jul-21 10:40 33.576240 -117.810172 135 9026ft 172kts
18-Jul-21 10:41 33.539651 -117.767145 135 9024ft 171kts
18-Jul-21 10:42 33.505582 -117.727110 135 9022ft 171kts
18-Jul-21 10:43 33.469068 -117.684260 135 9020ft 171kts
18-Jul-21 10:44 33.432205 -117.641098 135 9018ft 171kts
18-Jul-21 10:45 33.393685 -117.596066 135 8593ft 186kts
18-Jul-21 10:46 33.350598 -117.545765 135 7711ft 193kts
18-Jul-21 10:47 33.308008 -117.496100 135 7008ft 185kts
18-Jul-21 10:48 33.270377 -117.452233 135 7016ft 173kts
18-Jul-21 10:49 33.230007 -117.415100 156 7019ft 171kts
18-Jul-21 10:50 33.182263 -117.391551 156 7027ft 171kts
18-Jul-21 10:51 33.133755 -117.372197 161 7028ft 171kts
18-Jul-21 10:52 33.085489 -117.352362 159 7025ft 171kts
18-Jul-21 10:53 33.037485 -117.332202 160 6866ft 180kts
18-Jul-21 10:54 32.986910 -117.311001 160 5548ft 189kts
18-Jul-21 10:55 32.939646 -117.291194 159 5011ft 167kts
18-Jul-21 10:56 32.894441 -117.272269 160 4987ft 172kts
18-Jul-21 10:57 32.845557 -117.251757 159 4484ft 180kts
18-Jul-21 10:58 32.795958 -117.233087 164 4007ft 175kts
18-Jul-21 10:59 32.761074 -117.205087 99 3791ft 158kts
18-Jul-21 11:00 32.750402 -117.151452 124 1756ft 158kts
18-Jul-21 11:01 32.729799 -117.162016 263 696ft 88kts
18-Jul-21 11:02 32.732742 -117.188053 291 18ft 52kts
18-Jul-21 11:03 32.733689 -117.194479 103 18ft 17kts

Navigation Log

Ident Type
Flight plan parsing failed, navigation log unavailable